createdAt,value
2023-02-04T00:00:19.669Z,3.099
2023-02-04T00:01:18.722Z,3.200
2023-02-04T00:02:19.101Z,2.799
2023-02-04T00:04:18.296Z,3.200
2023-02-04T00:05:18.669Z,3.099
2023-02-04T00:06:18.896Z,3.200
2023-02-04T00:07:18.411Z,3.299
2023-02-04T00:08:18.410Z,3.400
2023-02-04T00:09:18.136Z,2.900
2023-02-04T00:10:18.499Z,3.400
2023-02-04T00:11:18.263Z,2.900
2023-02-04T00:12:18.551Z,3.099
2023-02-04T00:13:18.340Z,2.900
2023-02-04T00:14:18.535Z,3
2023-02-04T00:15:19.111Z,3.299
2023-02-04T00:16:18.234Z,3.5
2023-02-04T00:17:18.119Z,3.299
2023-02-04T00:19:18.494Z,2.799
2023-02-04T00:20:18.946Z,3.5
2023-02-04T00:21:18.559Z,3.299
2023-02-04T00:22:18.687Z,3.200
2023-02-04T00:23:18.810Z,3
2023-02-04T00:25:18.626Z,3.200
2023-02-04T00:26:18.783Z,2.900
2023-02-04T00:27:18.310Z,3.099
2023-02-04T00:28:16.043Z,3
2023-02-04T00:29:18.530Z,3.200
2023-02-04T00:30:18.684Z,2.700
2023-02-04T00:32:19.097Z,2.900
2023-02-04T00:33:18.119Z,3.400
2023-02-04T00:34:18.512Z,3.099
2023-02-04T00:35:18.770Z,2.799
2023-02-04T00:36:18.480Z,3.400
2023-02-04T00:37:18.681Z,3.200
2023-02-04T00:38:19.014Z,3
2023-02-04T00:39:18.313Z,2.900
2023-02-04T00:40:18.475Z,3
2023-02-04T00:41:18.760Z,3.299
2023-02-04T00:42:19.056Z,2.900
2023-02-04T00:43:18.459Z,2.799
2023-02-04T00:46:18.704Z,3.099
2023-02-04T00:48:18.205Z,2.799
2023-02-04T00:49:17.910Z,3.099
2023-02-04T00:50:18.578Z,2.599
2023-02-04T00:51:18.685Z,2.900
2023-02-04T00:52:18.661Z,2.799
2023-02-04T00:53:18.328Z,3.200
2023-02-04T00:54:18.228Z,3
2023-02-04T00:55:18.801Z,2.799
2023-02-04T00:56:18.717Z,2.900
2023-02-04T00:57:18.389Z,3
2023-02-04T00:58:18.322Z,2.700
2023-02-04T00:59:18.048Z,3.099
2023-02-04T01:00:19.787Z,2.799
2023-02-04T01:01:20.401Z,2.599
2023-02-04T01:02:18.648Z,2.799
2023-02-04T01:03:18.939Z,2.700
2023-02-04T01:04:18.360Z,2.599
2023-02-04T01:06:18.328Z,2.900
2023-02-04T01:07:18.499Z,2.799
2023-02-04T01:08:18.556Z,2.400
2023-02-04T01:09:18.581Z,2.799
2023-02-04T01:10:18.525Z,2.900
2023-02-04T01:11:18.182Z,2.700
2023-02-04T01:12:18.039Z,2.599
2023-02-04T01:13:17.755Z,2.700
2023-02-04T01:14:18.491Z,2.599
2023-02-04T01:15:18.638Z,2.799
2023-02-04T01:17:18.184Z,2.900
2023-02-04T01:18:17.654Z,2.400
2023-02-04T01:19:18.193Z,3.099
2023-02-04T01:20:18.636Z,2.599
2023-02-04T01:21:17.934Z,2.700
2023-02-04T01:22:18.628Z,2.900
2023-02-04T01:23:18.017Z,2.700
2023-02-04T01:24:18.228Z,2.799
2023-02-04T01:26:18.226Z,2.5
2023-02-04T01:27:18.501Z,2.400
2023-02-04T01:30:18.855Z,2.599
2023-02-04T01:31:17.808Z,2.700
2023-02-04T01:32:18.012Z,2.599
2023-02-04T01:33:18.442Z,2.400
2023-02-04T01:34:17.699Z,2.5
2023-02-04T01:35:18.140Z,2.799
2023-02-04T01:36:18.477Z,2.400
2023-02-04T01:37:17.795Z,2.799
2023-02-04T01:38:17.651Z,2.5
2023-02-04T01:39:17.612Z,2.900
2023-02-04T01:40:18.157Z,2.5
2023-02-04T01:41:18.075Z,2.799
2023-02-04T01:42:18.130Z,2.599
2023-02-04T01:43:18.486Z,2.900
2023-02-04T01:44:17.507Z,2.700
2023-02-04T01:45:18.165Z,2.900
2023-02-04T01:46:18.436Z,2.799
2023-02-04T01:48:18.258Z,3.200
2023-02-04T01:49:18.277Z,2.900
2023-02-04T01:50:18.678Z,2.5
2023-02-04T01:51:17.661Z,3.200
2023-02-04T01:52:18.050Z,3.299
2023-02-04T01:53:17.996Z,3.200
2023-02-04T01:54:18.090Z,2.599
2023-02-04T01:55:17.693Z,3.099
2023-02-04T01:58:18.396Z,3
2023-02-04T01:59:17.666Z,3.299
2023-02-04T02:00:19.143Z,3.099
2023-02-04T02:02:22.937Z,3.299
2023-02-04T02:03:18.266Z,3.099
2023-02-04T02:05:18.533Z,2.900
2023-02-04T02:06:18.136Z,3
2023-02-04T02:08:17.884Z,3.200
2023-02-04T02:09:18.491Z,2.799
2023-02-04T02:10:18.449Z,3.5
2023-02-04T02:11:18.324Z,3
2023-02-04T02:12:18.036Z,3.299
2023-02-04T02:13:18.447Z,3.200
2023-02-04T02:14:18.088Z,3.099
2023-02-04T02:15:18.887Z,2.799
2023-02-04T02:16:18.646Z,3.099
2023-02-04T02:17:18.987Z,2.900
2023-02-04T02:18:18.478Z,3.200
2023-02-04T02:19:18.301Z,3.5
2023-02-04T02:20:18.813Z,3.099
2023-02-04T02:23:18.444Z,2.799
2023-02-04T02:25:18.653Z,3.099
2023-02-04T02:26:18.292Z,3
2023-02-04T02:27:18.645Z,3.099
2023-02-04T02:28:18.020Z,2.900
2023-02-04T02:29:18.672Z,2.599
2023-02-04T02:30:18.286Z,3
2023-02-04T02:31:18.085Z,2.900
2023-02-04T02:32:17.765Z,3.099
2023-02-04T02:34:18.304Z,2.799
2023-02-04T02:36:18.324Z,2.900
2023-02-04T02:37:17.415Z,2.599
2023-02-04T02:38:17.774Z,2.799
2023-02-04T02:39:18.590Z,3.299
2023-02-04T02:40:18.388Z,3.200
2023-02-04T02:41:18.092Z,2.900
2023-02-04T02:42:18.512Z,2.799
2023-02-04T02:44:17.892Z,3.099
2023-02-04T02:45:18.360Z,3.200
2023-02-04T02:46:18.213Z,2.799
2023-02-04T02:48:18.021Z,2.900
2023-02-04T02:49:18.401Z,3
2023-02-04T02:50:18.670Z,2.900
2023-02-04T02:51:18.196Z,2.799
2023-02-04T02:52:18.350Z,2.900
2023-02-04T02:53:17.500Z,3
2023-02-04T02:54:17.349Z,3.200
2023-02-04T02:55:18.190Z,3.099
2023-02-04T02:56:18.311Z,2.900
2023-02-04T02:57:18.473Z,2.700
2023-02-04T02:58:18.582Z,3.200
2023-02-04T02:59:18.020Z,2.799
2023-02-04T03:00:19.479Z,3
2023-02-04T03:02:18.027Z,2.700
2023-02-04T03:03:17.916Z,2.900
2023-02-04T03:04:18.018Z,3.099
2023-02-04T03:05:18.623Z,2.700
2023-02-04T03:06:17.769Z,3
2023-02-04T03:08:17.504Z,2.700
2023-02-04T03:09:17.684Z,3.099
2023-02-04T03:10:18.272Z,2.900
2023-02-04T03:12:18.039Z,2.700
2023-02-04T03:13:18.306Z,2.799
2023-02-04T03:14:17.523Z,2.700
2023-02-04T03:15:17.973Z,3.099
2023-02-04T03:16:18.593Z,3.200
2023-02-04T03:17:18.069Z,3.299
2023-02-04T03:18:17.868Z,2.700
2023-02-04T03:19:18.062Z,3
2023-02-04T03:20:18.459Z,3.099
2023-02-04T03:21:18.089Z,3
2023-02-04T03:23:18.084Z,3.400
2023-02-04T03:24:18.518Z,3
2023-02-04T03:27:18.245Z,3
2023-02-04T03:28:18.243Z,3.200
2023-02-04T03:29:18.652Z,2.900
2023-02-04T03:31:18.910Z,3.299
2023-02-04T03:32:18.014Z,3.400
2023-02-04T03:33:18.702Z,3.099
2023-02-04T03:34:18.659Z,3.700
2023-02-04T03:35:18.521Z,3.599
2023-02-04T03:36:17.855Z,3.400
2023-02-04T03:37:18.651Z,3.299
2023-02-04T03:38:19.877Z,3
2023-02-04T03:39:17.997Z,3.200
2023-02-04T03:40:18.520Z,3.599
2023-02-04T03:42:17.472Z,3.700
2023-02-04T03:43:18.270Z,3.200
2023-02-04T03:44:18.648Z,3.700
2023-02-04T03:45:18.213Z,3.400
2023-02-04T03:46:18.796Z,3.099
2023-02-04T03:47:18.758Z,3.5
2023-02-04T03:48:19.130Z,3.599
2023-02-04T03:49:18.585Z,3.5
2023-02-04T03:50:18.286Z,3.400
2023-02-04T03:51:18.579Z,3.5
2023-02-04T03:52:17.987Z,3.299
2023-02-04T03:54:17.539Z,3.5
2023-02-04T03:55:17.899Z,3
2023-02-04T03:56:17.925Z,3.599
2023-02-04T03:57:18.374Z,3.700
2023-02-04T03:58:17.737Z,3.400
2023-02-04T03:59:17.729Z,3.299
2023-02-04T04:00:18.656Z,3.400
2023-02-04T04:01:17.753Z,3.5
2023-02-04T04:02:18.500Z,3.400
2023-02-04T04:03:17.764Z,3.299
2023-02-04T04:04:18.209Z,3.400
2023-02-04T04:06:17.803Z,3.200
2023-02-04T04:07:18.289Z,3.400
2023-02-04T04:08:18.716Z,3.200
2023-02-04T04:11:18.259Z,3.5
2023-02-04T04:12:17.576Z,3.700
2023-02-04T04:13:17.939Z,3.200
2023-02-04T04:14:18.315Z,3.400
2023-02-04T04:15:18.840Z,4
2023-02-04T04:16:18.819Z,3.5
2023-02-04T04:17:18.163Z,3.400
2023-02-04T04:19:17.923Z,3.299
2023-02-04T04:20:18.318Z,3.599
2023-02-04T04:21:18.004Z,3.799
2023-02-04T04:22:18.556Z,3.299
2023-02-04T04:23:17.818Z,3.700
2023-02-04T04:24:18.602Z,3.5
2023-02-04T04:25:18.281Z,3.400
2023-02-04T04:26:18.465Z,2.799
2023-02-04T04:27:17.769Z,3.5
2023-02-04T04:28:18.234Z,3.599
2023-02-04T04:29:17.793Z,3.400
2023-02-04T04:30:18.901Z,3
2023-02-04T04:31:19.060Z,3.200
2023-02-04T04:32:18.546Z,3.299
2023-02-04T04:33:18.274Z,3.400
2023-02-04T04:34:18.389Z,3
2023-02-04T04:35:19.062Z,3.799
2023-02-04T04:36:18.434Z,2.900
2023-02-04T04:38:18.747Z,2.799
2023-02-04T04:39:18.932Z,3
2023-02-04T04:40:18.832Z,3.299
2023-02-04T04:41:18.573Z,3.099
2023-02-04T04:42:18.485Z,3.200
2023-02-04T04:43:18.813Z,2.900
2023-02-04T04:44:18.339Z,3.099
2023-02-04T04:45:19.050Z,3.400
2023-02-04T04:46:17.810Z,3.299
2023-02-04T04:47:18.802Z,3.200
2023-02-04T04:49:19.105Z,3
2023-02-04T04:50:18.604Z,3.400
2023-02-04T04:52:18.837Z,3.299
2023-02-04T04:53:18.207Z,3.400
2023-02-04T04:54:18.669Z,3.099
2023-02-04T04:55:18.535Z,3.299
2023-02-04T04:56:18.370Z,3.599
2023-02-04T04:57:18.487Z,3.400
2023-02-04T04:58:18.392Z,3.299
2023-02-04T04:59:18.816Z,3.5
2023-02-04T05:00:20.341Z,3.200
2023-02-04T05:01:17.990Z,4.199
2023-02-04T05:02:18.842Z,3.400
2023-02-04T05:03:18.682Z,3.5
2023-02-04T05:04:18.517Z,3.700
2023-02-04T05:06:18.668Z,3.099
2023-02-04T05:07:18.221Z,3.599
2023-02-04T05:09:18.511Z,3.400
2023-02-04T05:11:18.578Z,4.099
2023-02-04T05:13:17.780Z,4
2023-02-04T05:14:18.120Z,4.199
2023-02-04T05:15:18.993Z,4
2023-02-04T05:17:18.784Z,3.900
2023-02-04T05:18:18.550Z,4.199
2023-02-04T05:19:18.241Z,4
2023-02-04T05:20:17.884Z,4.099
2023-02-04T05:21:17.774Z,3.799
2023-02-04T05:24:18.238Z,4
2023-02-04T05:25:18.489Z,4.099
2023-02-04T05:26:29.501Z,4.900
2023-02-04T05:27:17.981Z,4.599
2023-02-04T05:28:18.156Z,3.900
2023-02-04T05:29:18.067Z,4
2023-02-04T05:30:18.849Z,4.199
2023-02-04T05:31:18.466Z,4.599
2023-02-04T05:32:18.662Z,3.900
2023-02-04T05:33:18.449Z,4.400
2023-02-04T05:34:18.329Z,3.900
2023-02-04T05:35:18.950Z,3.700
2023-02-04T05:37:18.554Z,3.799
2023-02-04T05:38:18.216Z,3.700
2023-02-04T05:39:17.911Z,4
2023-02-04T05:40:17.416Z,3.599
2023-02-04T05:41:18.565Z,4.099
2023-02-04T05:42:18.301Z,3.900
2023-02-04T05:43:17.952Z,3.799
2023-02-04T05:45:18.555Z,3.5
2023-02-04T05:46:18.523Z,3.799
2023-02-04T05:47:18.260Z,4
2023-02-04T05:49:17.926Z,4.099
2023-02-04T05:50:18.840Z,3.900
2023-02-04T05:51:18.060Z,4.199
2023-02-04T05:52:18.764Z,4.699
2023-02-04T05:53:18.240Z,4.099
2023-02-04T05:54:18.287Z,4.599
2023-02-04T05:55:18.229Z,4.5
2023-02-04T05:56:18.576Z,3.900
2023-02-04T05:57:18.563Z,3.799
2023-02-04T05:58:18.401Z,4
2023-02-04T05:59:18.497Z,3.799
2023-02-04T06:00:19.146Z,3.700
2023-02-04T06:01:18.930Z,4.099
2023-02-04T06:02:19.052Z,3.700
2023-02-04T06:03:18.809Z,4
2023-02-04T06:04:18.866Z,4.400
2023-02-04T06:05:19.082Z,3.599
2023-02-04T06:06:17.780Z,4
2023-02-04T06:07:18.497Z,3.900
2023-02-04T06:08:18.570Z,4.300
2023-02-04T06:09:18.573Z,4.099
2023-02-04T06:10:18.574Z,3.599
2023-02-04T06:11:17.993Z,3.700
2023-02-04T06:12:18.434Z,3.299
2023-02-04T06:13:18.362Z,4.099
2023-02-04T06:17:18.353Z,3.700
2023-02-04T06:18:18.195Z,4
2023-02-04T06:19:18.975Z,3.700
2023-02-04T06:20:19.095Z,3.599
2023-02-04T06:21:18.050Z,3.700
2023-02-04T06:22:17.850Z,3.599
2023-02-04T06:23:18.819Z,3.700
2023-02-04T06:24:18.927Z,3.900
2023-02-04T06:25:19.171Z,3.799
2023-02-04T06:26:18.835Z,3.400
2023-02-04T06:27:18.915Z,3.799
2023-02-04T06:29:17.964Z,3.599
2023-02-04T06:30:18.433Z,3.400
2023-02-04T06:31:18.768Z,3.700
2023-02-04T06:33:18.121Z,4.099
2023-02-04T06:34:18.517Z,3.599
2023-02-04T06:35:18.705Z,3.900
2023-02-04T06:36:19.081Z,3.400
2023-02-04T06:37:18.252Z,3.799
2023-02-04T06:38:18.104Z,3.400
2023-02-04T06:39:18.075Z,3.299
2023-02-04T06:40:18.860Z,3.400
2023-02-04T06:41:18.397Z,3.5
2023-02-04T06:42:18.380Z,3.599
2023-02-04T06:45:18.212Z,3.799
2023-02-04T06:46:18.222Z,3.5
2023-02-04T06:48:18.256Z,3.599
2023-02-04T06:49:18.068Z,3.5
2023-02-04T06:50:19.120Z,3.400
2023-02-04T06:51:18.566Z,3.900
2023-02-04T06:52:18.626Z,3.799
2023-02-04T06:53:19.014Z,3.5
2023-02-04T06:54:18.661Z,3.700
2023-02-04T06:55:18.830Z,3.400
2023-02-04T06:56:18.972Z,3.799
2023-02-04T06:57:18.684Z,3.200
2023-02-04T06:58:19.113Z,3.099
2023-02-04T06:59:18.291Z,3.299
2023-02-04T07:00:24.825Z,3.799
2023-02-04T07:01:18.332Z,3.700
2023-02-04T07:03:18.660Z,3.799
2023-02-04T07:04:18.466Z,3.599
2023-02-04T07:05:18.864Z,3.200
2023-02-04T07:06:18.840Z,3.5
2023-02-04T07:07:18.970Z,3.700
2023-02-04T07:08:18.312Z,3.799
2023-02-04T07:09:18.330Z,3.700
2023-02-04T07:10:18.584Z,3.599
2023-02-04T07:11:19.170Z,3.400
2023-02-04T07:12:31.818Z,3.700
2023-02-04T07:13:18.874Z,3.299
2023-02-04T07:14:18.851Z,3.700
2023-02-04T07:15:19.220Z,3.400
2023-02-04T07:16:18.320Z,3.599
2023-02-04T07:17:18.551Z,3.200
2023-02-04T07:18:18.262Z,3.700
2023-02-04T07:20:18.393Z,3.299
2023-02-04T07:21:18.040Z,3.700
2023-02-04T07:22:19.202Z,3.799
2023-02-04T07:23:18.270Z,4
2023-02-04T07:24:18.206Z,4.099
2023-02-04T07:25:18.546Z,3.900
2023-02-04T07:26:18.042Z,3.700
2023-02-04T07:27:18.789Z,4
2023-02-04T07:28:18.773Z,4.599
2023-02-04T07:29:24.939Z,4
2023-02-04T07:30:19.033Z,4.099
2023-02-04T07:31:18.923Z,3.900
2023-02-04T07:32:18.391Z,4.199
2023-02-04T07:33:18.233Z,4.5
2023-02-04T07:35:18.212Z,4.199
2023-02-04T07:37:19.456Z,4.599
2023-02-04T07:38:18.496Z,4.800
2023-02-04T07:39:19.171Z,4.599
2023-02-04T07:40:19.087Z,4.300
2023-02-04T07:41:18.248Z,5
2023-02-04T07:42:18.664Z,4.599
2023-02-04T07:43:18.565Z,5
2023-02-04T07:44:18.678Z,4.800
2023-02-04T07:45:19.748Z,4.699
2023-02-04T07:46:18.012Z,4.800
2023-02-04T07:47:18.675Z,4.5
2023-02-04T07:48:19.472Z,4.599
2023-02-04T07:49:18.894Z,5
2023-02-04T07:51:18.803Z,4.599
2023-02-04T07:52:18.718Z,4.900
2023-02-04T07:53:18.770Z,5.5
2023-02-04T07:54:18.550Z,5.099
2023-02-04T07:56:18.880Z,5.599
2023-02-04T07:57:20.413Z,4.900
2023-02-04T07:59:18.119Z,5.599
2023-02-04T08:00:19.206Z,5.300
2023-02-04T08:01:18.906Z,5.199
2023-02-04T08:03:18.353Z,5.599
2023-02-04T08:04:18.958Z,4.900
2023-02-04T08:05:18.853Z,4.800
2023-02-04T08:07:18.812Z,4.5
2023-02-04T08:08:18.785Z,5.5
2023-02-04T08:09:19.223Z,5.199
2023-02-04T08:10:18.876Z,5.300
2023-02-04T08:11:18.670Z,4.800
2023-02-04T08:12:18.590Z,4.5
2023-02-04T08:13:18.186Z,4.900
2023-02-04T08:14:18.496Z,4.599
2023-02-04T08:15:18.806Z,4.900
2023-02-04T08:16:18.555Z,4.599
2023-02-04T08:17:18.822Z,4.199
2023-02-04T08:18:18.677Z,4.699
2023-02-04T08:19:18.409Z,5.099
2023-02-04T08:20:18.665Z,4.699
2023-02-04T08:21:19.446Z,4.800
2023-02-04T08:22:18.895Z,4.699
2023-02-04T08:23:18.161Z,4.800
2023-02-04T08:24:18.598Z,5.099
2023-02-04T08:25:19.235Z,5.5
2023-02-04T08:26:18.952Z,4.699
2023-02-04T08:27:18.292Z,5.800
2023-02-04T08:28:18.710Z,5
2023-02-04T08:29:19.259Z,4.599
2023-02-04T08:30:19.482Z,4.900
2023-02-04T08:31:18.756Z,4.599
2023-02-04T08:33:18.767Z,4.5
2023-02-04T08:34:18.124Z,4.800
2023-02-04T08:35:19.330Z,5.800
2023-02-04T08:36:18.790Z,4.900
2023-02-04T08:37:18.974Z,5
2023-02-04T08:38:18.182Z,5.099
2023-02-04T08:39:18.776Z,6
2023-02-04T08:40:20.425Z,5.800
2023-02-04T08:41:18.689Z,5.599
2023-02-04T08:42:18.674Z,5.900
2023-02-04T08:43:19.466Z,5.599
2023-02-04T08:44:18.880Z,5.699
2023-02-04T08:45:20.041Z,6.199
2023-02-04T08:46:20.087Z,6.400
2023-02-04T08:47:19.406Z,6.599
2023-02-04T08:48:19.724Z,6.199
2023-02-04T08:50:20.558Z,5.900
2023-02-04T08:51:19.557Z,6.900
2023-02-04T08:52:19.804Z,6.599
2023-02-04T08:53:20.035Z,6
2023-02-04T08:54:20.341Z,6.300
2023-02-04T08:55:20.149Z,6.099
2023-02-04T08:56:19.982Z,6.400
2023-02-04T08:57:19.225Z,6
2023-02-04T08:58:18.843Z,6.099
2023-02-04T08:59:19.257Z,6
2023-02-04T09:00:20.109Z,6.900
2023-02-04T09:01:19.028Z,7.099
2023-02-04T09:02:19.256Z,6.5
2023-02-04T09:03:19.143Z,7.099
2023-02-04T09:04:18.709Z,7
2023-02-04T09:05:19.237Z,6.5
2023-02-04T09:06:19.679Z,6.900
2023-02-04T09:07:18.982Z,7.099
2023-02-04T09:09:21.637Z,6.900
2023-02-04T09:10:18.633Z,7.199
2023-02-04T09:11:19.277Z,7.099
2023-02-04T09:12:19.404Z,8
2023-02-04T09:13:19.659Z,7.5
2023-02-04T09:14:18.829Z,7.300
2023-02-04T09:17:19.158Z,8.5
2023-02-04T09:18:19.512Z,7.5
2023-02-04T09:19:19.297Z,7.900
2023-02-04T09:20:20.258Z,7.5
2023-02-04T09:21:18.983Z,7.900
2023-02-04T09:22:18.733Z,7.699
2023-02-04T09:23:19.348Z,8.199
2023-02-04T09:24:19.038Z,8
2023-02-04T09:25:24.545Z,7.900
2023-02-04T09:26:18.789Z,7.599
2023-02-04T09:28:18.858Z,7.699
2023-02-04T09:29:19.119Z,8.199
2023-02-04T09:30:19.122Z,7.900
2023-02-04T09:31:19.326Z,8.600
2023-02-04T09:32:19.148Z,7.800
2023-02-04T09:33:18.468Z,8.5
2023-02-04T09:34:18.275Z,8.300
2023-02-04T09:35:19.537Z,7.800
2023-02-04T09:36:19.474Z,8.399
2023-02-04T09:37:18.616Z,8.600
2023-02-04T09:38:19.451Z,7.400
2023-02-04T09:39:18.851Z,7.300
2023-02-04T09:40:19.007Z,8.300
2023-02-04T09:41:19.414Z,7.699
2023-02-04T09:42:19.388Z,7.900
2023-02-04T09:43:20.073Z,7.400
2023-02-04T09:44:20.125Z,7.199
2023-02-04T09:45:20.430Z,7.099
2023-02-04T09:47:19.515Z,8.100
2023-02-04T09:48:18.468Z,7.800
2023-02-04T09:50:18.379Z,7.5
2023-02-04T09:51:19.570Z,8.100
2023-02-04T09:52:18.816Z,7.599
2023-02-04T09:53:19.249Z,7.099
2023-02-04T09:54:18.756Z,7.699
2023-02-04T09:55:18.993Z,7.599
2023-02-04T09:56:19.198Z,7.800
2023-02-04T09:57:19.863Z,8.199
2023-02-04T09:58:19.568Z,7.400
2023-02-04T09:59:19.139Z,7.5
2023-02-04T10:00:20.424Z,7.599
2023-02-04T10:01:19.560Z,7.400
2023-02-04T10:03:38.784Z,7.300
2023-02-04T10:04:19.436Z,7.5
2023-02-04T10:05:22.400Z,8.100
2023-02-04T10:06:19.606Z,7.800
2023-02-04T10:07:19.732Z,8.5
2023-02-04T10:08:20.100Z,7.800
2023-02-04T10:09:19.292Z,7.699
2023-02-04T10:10:19.794Z,8
2023-02-04T10:11:19.283Z,8.800
2023-02-04T10:12:18.286Z,8.699
2023-02-04T10:13:19.043Z,8.300
2023-02-04T10:14:19.451Z,7.599
2023-02-04T10:15:19.793Z,8.600
2023-02-04T10:16:19.158Z,8.199
2023-02-04T10:17:19.723Z,8.600
2023-02-04T10:18:20.028Z,8.300
2023-02-04T10:19:19.820Z,7.900
2023-02-04T10:20:19.433Z,8.600
2023-02-04T10:21:19.810Z,7.699
2023-02-04T10:22:19.672Z,8.300
2023-02-04T10:23:19.717Z,7.699
2023-02-04T10:24:20.235Z,8
2023-02-04T10:25:19.242Z,8.600
2023-02-04T10:26:19.840Z,8.300
2023-02-04T10:28:19.794Z,8.699
2023-02-04T10:29:19.135Z,7.599
2023-02-04T10:30:19.749Z,8.199
2023-02-04T10:31:19.563Z,8.399
2023-02-04T10:32:19.440Z,8.5
2023-02-04T10:33:19.199Z,7.800
2023-02-04T10:34:19.490Z,7.900
2023-02-04T10:35:19.682Z,7.400
2023-02-04T10:36:19.242Z,7.5
2023-02-04T10:37:18.828Z,7.400
2023-02-04T10:38:18.991Z,7.5
2023-02-04T10:39:19.836Z,7.199
2023-02-04T10:40:19.564Z,6.900
2023-02-04T10:41:18.982Z,6.400
2023-02-04T10:42:19.457Z,7.099
2023-02-04T10:43:18.863Z,7.699
2023-02-04T10:44:18.810Z,7.599
2023-02-04T10:45:18.652Z,7
2023-02-04T10:47:18.689Z,6.300
2023-02-04T10:48:19.204Z,7
2023-02-04T10:49:18.802Z,7.099
2023-02-04T10:50:19.302Z,10.10
2023-02-04T10:51:18.165Z,8.399
2023-02-04T10:52:18.500Z,7.5
2023-02-04T10:53:19.409Z,6.900
2023-02-04T10:54:19.358Z,7.199
2023-02-04T10:55:20.041Z,7
2023-02-04T10:56:19.569Z,7.099
2023-02-04T10:57:20.873Z,6.599
2023-02-04T10:58:19.298Z,6.300
2023-02-04T10:59:19.579Z,6.900
2023-02-04T11:00:19.757Z,6.699
2023-02-04T11:01:19.435Z,7
2023-02-04T11:02:19.051Z,6.599
2023-02-04T11:03:19.090Z,7.199
2023-02-04T11:04:19.712Z,7
2023-02-04T11:05:19.460Z,6.400
2023-02-04T11:06:19.173Z,7
2023-02-04T11:07:19.383Z,6.900
2023-02-04T11:08:18.753Z,6.599
2023-02-04T11:09:18.859Z,7.099
2023-02-04T11:10:19.543Z,6.599
2023-02-04T11:11:19.789Z,6.400
2023-02-04T11:12:19.296Z,7.099
2023-02-04T11:13:19.065Z,7
2023-02-04T11:14:19.325Z,6.900
2023-02-04T11:15:19.235Z,6.800
2023-02-04T11:17:18.716Z,6.599
2023-02-04T11:18:18.904Z,6.300
2023-02-04T11:19:18.998Z,6.5
2023-02-04T11:20:19.418Z,6.400
2023-02-04T11:21:19.473Z,6.099
2023-02-04T11:22:19.482Z,6.400
2023-02-04T11:23:19.645Z,6.099
2023-02-04T11:24:19.136Z,7
2023-02-04T11:25:19.848Z,7.099
2023-02-04T11:26:20.202Z,6.699
2023-02-04T11:27:20.037Z,6.800
2023-02-04T11:28:19.437Z,6.400
2023-02-04T11:29:19.485Z,6.699
2023-02-04T11:30:19.987Z,5.699
2023-02-04T11:31:19.440Z,6.300
2023-02-04T11:32:21.378Z,5.599
2023-02-04T11:33:18.851Z,6
2023-02-04T11:34:19.468Z,5.400
2023-02-04T11:35:19.735Z,6
2023-02-04T11:36:18.690Z,5.699
2023-02-04T11:38:18.772Z,6.300
2023-02-04T11:39:18.976Z,5.699
2023-02-04T11:40:19.344Z,6
2023-02-04T11:41:19.832Z,5.900
2023-02-04T11:42:18.939Z,5.5
2023-02-04T11:43:20.228Z,6
2023-02-04T11:44:19.102Z,5.099
2023-02-04T11:45:19.164Z,5.300
2023-02-04T11:46:18.279Z,5.5
2023-02-04T11:47:19.224Z,5.699
2023-02-04T11:49:18.601Z,4.900
2023-02-04T11:50:19.549Z,5.900
2023-02-04T11:51:19.580Z,5.300
2023-02-04T11:53:19.011Z,5.800
2023-02-04T11:54:19.478Z,6.5
2023-02-04T11:55:19.754Z,6.199
2023-02-04T11:56:19.877Z,5.699
2023-02-04T11:58:19.506Z,5.599
2023-02-04T11:59:19.298Z,6.5
2023-02-04T12:00:25.973Z,6.599
2023-02-04T12:01:19.375Z,6.800
2023-02-04T12:03:20.047Z,5.699
2023-02-04T12:04:19.483Z,6
2023-02-04T12:05:19.229Z,5.800
2023-02-04T12:06:19.457Z,6.099
2023-02-04T12:07:19.564Z,5.400
2023-02-04T12:08:19.071Z,5.599
2023-02-04T12:09:19.474Z,5.699
2023-02-04T12:10:19.808Z,5.800
2023-02-04T12:11:19.024Z,5.900
2023-02-04T12:12:19.595Z,6
2023-02-04T12:13:19.317Z,6.800
2023-02-04T12:14:33.452Z,6.699
2023-02-04T12:15:19.748Z,6.599
2023-02-04T12:16:19.756Z,6.300
2023-02-04T12:17:19.856Z,6.199
2023-02-04T12:18:19.741Z,5.699
2023-02-04T12:19:19.315Z,6.099
2023-02-04T12:20:20.062Z,5.5
2023-02-04T12:21:19.157Z,6.099
2023-02-04T12:22:20.241Z,5.599
2023-02-04T12:23:19.869Z,6
2023-02-04T12:24:38.536Z,6.599
2023-02-04T12:25:19.370Z,6.300
2023-02-04T12:26:19.172Z,6.800
2023-02-04T12:27:19.371Z,5.699
2023-02-04T12:28:19.984Z,4.900
2023-02-04T12:29:19.025Z,5.800
2023-02-04T12:30:20.103Z,5.300
2023-02-04T12:31:19.735Z,5.800
2023-02-04T12:32:19.590Z,5.900
2023-02-04T12:33:19.792Z,5.699
2023-02-04T12:34:18.940Z,5.900
2023-02-04T12:35:19.288Z,5.599
2023-02-04T12:36:19.880Z,5.699
2023-02-04T12:38:20.567Z,5.5
2023-02-04T12:39:19.612Z,5.300
2023-02-04T12:40:42.114Z,5.599
2023-02-04T12:41:20.064Z,5.400
2023-02-04T12:42:20.062Z,5.099
2023-02-04T12:43:19.408Z,4.699
2023-02-04T12:44:19.693Z,5
2023-02-04T12:46:19.476Z,5.199
2023-02-04T12:47:19.401Z,4.900
2023-02-04T12:48:19.381Z,5.199
2023-02-04T12:49:20.028Z,4.599
2023-02-04T12:50:28.386Z,5
2023-02-04T12:51:20.305Z,4.800
2023-02-04T12:52:19.819Z,4.699
2023-02-04T12:54:19.888Z,4.099
2023-02-04T12:55:19.950Z,4.5
2023-02-04T12:56:19.339Z,4.699
2023-02-04T12:57:19.078Z,4.300
2023-02-04T12:58:19.374Z,3.700
2023-02-04T12:59:19.412Z,4.599
2023-02-04T13:00:20.320Z,4.699
2023-02-04T13:01:18.762Z,4.800
2023-02-04T13:02:19.717Z,4.599
2023-02-04T13:03:19.378Z,5.199
2023-02-04T13:04:19.499Z,4.900
2023-02-04T13:05:19.648Z,5
2023-02-04T13:06:20.146Z,5.199
2023-02-04T13:07:19.816Z,5.300
2023-02-04T13:08:19.708Z,4.800
2023-02-04T13:09:20.307Z,5
2023-02-04T13:10:19.385Z,4.599
2023-02-04T13:11:19.007Z,4.699
2023-02-04T13:12:19.935Z,5
2023-02-04T13:13:19.955Z,4.400
2023-02-04T13:14:19.950Z,5
2023-02-04T13:15:20.098Z,5.199
2023-02-04T13:16:19.665Z,4.800
2023-02-04T13:17:19.792Z,5.099
2023-02-04T13:18:19.614Z,5.400
2023-02-04T13:19:19.547Z,5.199
2023-02-04T13:20:19.985Z,5
2023-02-04T13:21:19.490Z,4.5
2023-02-04T13:22:19.957Z,4.699
2023-02-04T13:23:20.212Z,5.400
2023-02-04T13:24:19.216Z,5
2023-02-04T13:25:19.448Z,5.400
2023-02-04T13:26:19.519Z,5.199
2023-02-04T13:27:19.138Z,5
2023-02-04T13:28:20.444Z,4.900
2023-02-04T13:30:19.911Z,4.699
2023-02-04T13:32:20.282Z,4.5
2023-02-04T13:33:18.962Z,4.800
2023-02-04T13:34:20.150Z,4.900
2023-02-04T13:37:20.286Z,4.699
2023-02-04T13:38:19.496Z,4.5
2023-02-04T13:39:19.648Z,4.800
2023-02-04T13:41:19.662Z,5
2023-02-04T13:42:19.075Z,4.400
2023-02-04T13:43:19.220Z,4.099
2023-02-04T13:44:19.373Z,4.699
2023-02-04T13:46:19.790Z,3.900
2023-02-04T13:47:19.571Z,4.099
2023-02-04T13:48:20.234Z,4.5
2023-02-04T13:49:19.846Z,4.800
2023-02-04T13:50:19.545Z,4.599
2023-02-04T13:51:19.490Z,3.900
2023-02-04T13:52:19.456Z,4.199
2023-02-04T13:53:19.953Z,4.599
2023-02-04T13:54:20.228Z,5.199
2023-02-04T13:55:19.406Z,5.300
2023-02-04T13:56:19.284Z,4.699
2023-02-04T13:57:19.988Z,5.099
2023-02-04T13:58:19.249Z,4.900
2023-02-04T13:59:20.960Z,4.699
2023-02-04T14:00:20.835Z,4.800
2023-02-04T14:01:19.784Z,5
2023-02-04T14:02:20.074Z,4.400
2023-02-04T14:03:19.638Z,4.599
2023-02-04T14:04:20.176Z,4.5
2023-02-04T14:05:19.985Z,5.099
2023-02-04T14:06:19.138Z,4.5
2023-02-04T14:07:20.441Z,4.099
2023-02-04T14:08:19.421Z,5.099
2023-02-04T14:09:19.516Z,5.400
2023-02-04T14:10:20.184Z,5
2023-02-04T14:11:20.110Z,4.800
2023-02-04T14:12:19.808Z,4.300
2023-02-04T14:13:19.662Z,4.5
2023-02-04T14:14:19.490Z,4.699
2023-02-04T14:15:25.254Z,5
2023-02-04T14:16:19.408Z,4.599
2023-02-04T14:17:19.724Z,4.400
2023-02-04T14:18:19.889Z,3.900
2023-02-04T14:19:19.537Z,4.199
2023-02-04T14:20:20.288Z,4.699
2023-02-04T14:21:19.630Z,4.599
2023-02-04T14:22:19.422Z,4.300
2023-02-04T14:23:19.565Z,3.799
2023-02-04T14:26:19.077Z,4.599
2023-02-04T14:27:27.686Z,4.300
2023-02-04T14:30:19.254Z,4.699
2023-02-04T14:31:19.683Z,4.199
2023-02-04T14:33:19.527Z,4.800
2023-02-04T14:35:19.065Z,4.099
2023-02-04T14:36:19.214Z,4.599
2023-02-04T14:37:19.376Z,4.199
2023-02-04T14:38:19.422Z,3.799
2023-02-04T14:39:19.692Z,3.900
2023-02-04T14:40:20.353Z,3.700
2023-02-04T14:41:19.132Z,4.099
2023-02-04T14:42:19.488Z,3.799
2023-02-04T14:43:19.872Z,4.599
2023-02-04T14:44:20.235Z,4.300
2023-02-04T14:48:19.537Z,4.099
2023-02-04T14:49:18.901Z,4.300
2023-02-04T14:50:19.309Z,4.099